<?xml version="1.0" encoding="UTF-8" standalone="no" ?>
<gpx xmlns="http://www.topografix.com/GPX/1/1" xmlns:xsi="http://www.w3.org/2001/XMLSchema-instance" xsi:schemaLocation="http://www.topografix.com/GPX/1/1 http://www.topografix.com/GPX/1/1/gpx.xsd" version="1.1" creator="VisuGPX - https://www.visugpx.com">
  <metadata>
    <name>Boucle saint Paul de tartas</name>
    <desc><![CDATA[En partant de Saint-Paul de Tartas, on reste un bon moment sur le plateau, avant de descendre dans la vallée de la Méjeanne. On passe près d'une maison forte (Montbel) avant de remonter dans les bois jusqu'au joli hameau de Morte Sagne. En revenant un chemin à droite dans le bois de la Bousille permet de rallonger la ballade en grimpant au Mont Tartas.]]></desc>
  </metadata>
  <wpt lat="44.79625" lon="3.92344">
    <ele>1141.8</ele>
    <name><![CDATA[Pause à 29/07 11:38]]></name>
  </wpt>
  <wpt lat="44.80858" lon="3.92603">
    <ele>1140.4</ele>
    <name><![CDATA[Pause à 29/07 12:07]]></name>
  </wpt>
  <wpt lat="44.81511" lon="3.9375">
    <ele>1076.1</ele>
    <name><![CDATA[Pause à 29/07 12:30]]></name>
  </wpt>
  <wpt lat="44.82006" lon="3.94216">
    <ele>989.8</ele>
    <name><![CDATA[Pause à 29/07 12:48]]></name>
  </wpt>
  <trk>
    <name><![CDATA[Boucle saint Paul de tartas]]></name>
    <trkseg>
      <trkpt lat="44.80409" lon="3.90644">
        <ele>1203</ele>
        <time>2019-07-29T09:04:54Z</time>
      </trkpt>
      <trkpt lat="44.80404" lon="3.90636">
        <ele>1215</ele>
        <time>2019-07-29T09:05:10Z</time>
      </trkpt>
      <trkpt lat="44.80401" lon="3.90657">
        <ele>1207</ele>
        <time>2019-07-29T09:05:29Z</time>
      </trkpt>
      <trkpt lat="44.80395" lon="3.9069">
        <ele>1205</ele>
        <time>2019-07-29T09:05:49Z</time>
      </trkpt>
      <trkpt lat="44.80379" lon="3.90694">
        <ele>1205</ele>
        <time>2019-07-29T09:06:10Z</time>
      </trkpt>
      <trkpt lat="44.80371" lon="3.90715">
        <ele>1205</ele>
        <time>2019-07-29T09:06:31Z</time>
      </trkpt>
      <trkpt lat="44.80368" lon="3.90731">
        <ele>1205</ele>
        <time>2019-07-29T09:06:51Z</time>
      </trkpt>
      <trkpt lat="44.80358" lon="3.90756">
        <ele>1205</ele>
        <time>2019-07-29T09:07:07Z</time>
      </trkpt>
      <trkpt lat="44.80341" lon="3.90794">
        <ele>1204</ele>
        <time>2019-07-29T09:07:31Z</time>
      </trkpt>
      <trkpt lat="44.80337" lon="3.90822">
        <ele>1202</ele>
        <time>2019-07-29T09:07:53Z</time>
      </trkpt>
      <trkpt lat="44.80304" lon="3.90876">
        <ele>1201</ele>
        <time>2019-07-29T09:08:16Z</time>
      </trkpt>
      <trkpt lat="44.80283" lon="3.90906">
        <ele>1202</ele>
        <time>2019-07-29T09:08:37Z</time>
      </trkpt>
      <trkpt lat="44.80262" lon="3.90933">
        <ele>1205</ele>
        <time>2019-07-29T09:08:58Z</time>
      </trkpt>
      <trkpt lat="44.80239" lon="3.90973">
        <ele>1213</ele>
        <time>2019-07-29T09:09:32Z</time>
      </trkpt>
      <trkpt lat="44.80217" lon="3.91004">
        <ele>1223</ele>
        <time>2019-07-29T09:09:52Z</time>
      </trkpt>
      <trkpt lat="44.80201" lon="3.91024">
        <ele>1225</ele>
        <time>2019-07-29T09:10:13Z</time>
      </trkpt>
      <trkpt lat="44.80186" lon="3.91044">
        <ele>1226</ele>
        <time>2019-07-29T09:10:28Z</time>
      </trkpt>
      <trkpt lat="44.80166" lon="3.91077">
        <ele>1226</ele>
        <time>2019-07-29T09:10:50Z</time>
      </trkpt>
      <trkpt lat="44.80145" lon="3.91114">
        <ele>1224</ele>
        <time>2019-07-29T09:11:10Z</time>
      </trkpt>
      <trkpt lat="44.80127" lon="3.91142">
        <ele>1221</ele>
        <time>2019-07-29T09:11:36Z</time>
      </trkpt>
      <trkpt lat="44.80111" lon="3.91178">
        <ele>1219</ele>
        <time>2019-07-29T09:12:00Z</time>
      </trkpt>
      <trkpt lat="44.80094" lon="3.91201">
        <ele>1217</ele>
        <time>2019-07-29T09:12:17Z</time>
      </trkpt>
      <trkpt lat="44.80071" lon="3.91219">
        <ele>1212</ele>
        <time>2019-07-29T09:12:37Z</time>
      </trkpt>
      <trkpt lat="44.8005" lon="3.91223">
        <ele>1209</ele>
        <time>2019-07-29T09:12:59Z</time>
      </trkpt>
      <trkpt lat="44.80028" lon="3.91227">
        <ele>1205</ele>
        <time>2019-07-29T09:13:20Z</time>
      </trkpt>
      <trkpt lat="44.80012" lon="3.91248">
        <ele>1202</ele>
        <time>2019-07-29T09:13:35Z</time>
      </trkpt>
      <trkpt lat="44.79995" lon="3.91276">
        <ele>1199</ele>
        <time>2019-07-29T09:13:55Z</time>
      </trkpt>
      <trkpt lat="44.79981" lon="3.91303">
        <ele>1196</ele>
        <time>2019-07-29T09:14:25Z</time>
      </trkpt>
      <trkpt lat="44.79962" lon="3.91326">
        <ele>1194</ele>
        <time>2019-07-29T09:14:46Z</time>
      </trkpt>
      <trkpt lat="44.79941" lon="3.91338">
        <ele>1193</ele>
        <time>2019-07-29T09:15:09Z</time>
      </trkpt>
      <trkpt lat="44.79924" lon="3.91339">
        <ele>1192</ele>
        <time>2019-07-29T09:15:25Z</time>
      </trkpt>
      <trkpt lat="44.79903" lon="3.9134">
        <ele>1192</ele>
        <time>2019-07-29T09:15:46Z</time>
      </trkpt>
      <trkpt lat="44.79884" lon="3.91339">
        <ele>1192</ele>
        <time>2019-07-29T09:16:08Z</time>
      </trkpt>
      <trkpt lat="44.79863" lon="3.91342">
        <ele>1191</ele>
        <time>2019-07-29T09:16:32Z</time>
      </trkpt>
      <trkpt lat="44.79844" lon="3.91346">
        <ele>1190</ele>
        <time>2019-07-29T09:16:48Z</time>
      </trkpt>
      <trkpt lat="44.79816" lon="3.91364">
        <ele>1189</ele>
        <time>2019-07-29T09:17:08Z</time>
      </trkpt>
      <trkpt lat="44.79784" lon="3.91395">
        <ele>1187</ele>
        <time>2019-07-29T09:17:28Z</time>
      </trkpt>
      <trkpt lat="44.79778" lon="3.9141">
        <ele>1186</ele>
        <time>2019-07-29T09:18:00Z</time>
      </trkpt>
      <trkpt lat="44.79773" lon="3.91421">
        <ele>1186</ele>
        <time>2019-07-29T09:19:06Z</time>
      </trkpt>
      <trkpt lat="44.7976" lon="3.91435">
        <ele>1186</ele>
        <time>2019-07-29T09:19:23Z</time>
      </trkpt>
      <trkpt lat="44.79742" lon="3.91452">
        <ele>1186</ele>
        <time>2019-07-29T09:19:46Z</time>
      </trkpt>
      <trkpt lat="44.79715" lon="3.91463">
        <ele>1186</ele>
        <time>2019-07-29T09:20:06Z</time>
      </trkpt>
      <trkpt lat="44.79694" lon="3.91471">
        <ele>1186</ele>
        <time>2019-07-29T09:20:27Z</time>
      </trkpt>
      <trkpt lat="44.7967" lon="3.91483">
        <ele>1186</ele>
        <time>2019-07-29T09:20:49Z</time>
      </trkpt>
      <trkpt lat="44.79657" lon="3.91492">
        <ele>1186</ele>
        <time>2019-07-29T09:21:10Z</time>
      </trkpt>
      <trkpt lat="44.79636" lon="3.91517">
        <ele>1186</ele>
        <time>2019-07-29T09:21:31Z</time>
      </trkpt>
      <trkpt lat="44.79618" lon="3.91537">
        <ele>1186</ele>
        <time>2019-07-29T09:21:54Z</time>
      </trkpt>
      <trkpt lat="44.79601" lon="3.9156">
        <ele>1186</ele>
        <time>2019-07-29T09:22:17Z</time>
      </trkpt>
      <trkpt lat="44.79587" lon="3.9157">
        <ele>1187</ele>
        <time>2019-07-29T09:22:35Z</time>
      </trkpt>
      <trkpt lat="44.79566" lon="3.91589">
        <ele>1186</ele>
        <time>2019-07-29T09:22:55Z</time>
      </trkpt>
      <trkpt lat="44.79547" lon="3.91606">
        <ele>1186</ele>
        <time>2019-07-29T09:23:17Z</time>
      </trkpt>
      <trkpt lat="44.79528" lon="3.91631">
        <ele>1186</ele>
        <time>2019-07-29T09:23:42Z</time>
      </trkpt>
      <trkpt lat="44.79513" lon="3.91657">
        <ele>1184</ele>
        <time>2019-07-29T09:24:09Z</time>
      </trkpt>
      <trkpt lat="44.79496" lon="3.91671">
        <ele>1183</ele>
        <time>2019-07-29T09:24:28Z</time>
      </trkpt>
      <trkpt lat="44.79475" lon="3.91695">
        <ele>1183</ele>
        <time>2019-07-29T09:24:54Z</time>
      </trkpt>
      <trkpt lat="44.79457" lon="3.91712">
        <ele>1183</ele>
        <time>2019-07-29T09:25:14Z</time>
      </trkpt>
      <trkpt lat="44.79446" lon="3.91745">
        <ele>1182</ele>
        <time>2019-07-29T09:25:38Z</time>
      </trkpt>
      <trkpt lat="44.7943" lon="3.91741">
        <ele>1182</ele>
        <time>2019-07-29T09:26:03Z</time>
      </trkpt>
      <trkpt lat="44.79406" lon="3.91738">
        <ele>1180</ele>
        <time>2019-07-29T09:26:25Z</time>
      </trkpt>
      <trkpt lat="44.79386" lon="3.91717">
        <ele>1178</ele>
        <time>2019-07-29T09:26:45Z</time>
      </trkpt>
      <trkpt lat="44.79367" lon="3.9172">
        <ele>1177</ele>
        <time>2019-07-29T09:27:05Z</time>
      </trkpt>
      <trkpt lat="44.79377" lon="3.91752">
        <ele>1175</ele>
        <time>2019-07-29T09:27:30Z</time>
      </trkpt>
      <trkpt lat="44.79381" lon="3.91776">
        <ele>1174</ele>
        <time>2019-07-29T09:27:46Z</time>
      </trkpt>
      <trkpt lat="44.7939" lon="3.91805">
        <ele>1173</ele>
        <time>2019-07-29T09:28:06Z</time>
      </trkpt>
      <trkpt lat="44.79401" lon="3.91837">
        <ele>1172</ele>
        <time>2019-07-29T09:28:27Z</time>
      </trkpt>
      <trkpt lat="44.79414" lon="3.91874">
        <ele>1171</ele>
        <time>2019-07-29T09:28:47Z</time>
      </trkpt>
      <trkpt lat="44.7941" lon="3.91903">
        <ele>1171</ele>
        <time>2019-07-29T09:29:08Z</time>
      </trkpt>
      <trkpt lat="44.79411" lon="3.91925">
        <ele>1170</ele>
        <time>2019-07-29T09:29:43Z</time>
      </trkpt>
      <trkpt lat="44.79411" lon="3.91947">
        <ele>1169</ele>
        <time>2019-07-29T09:30:14Z</time>
      </trkpt>
      <trkpt lat="44.79417" lon="3.91977">
        <ele>1166</ele>
        <time>2019-07-29T09:30:34Z</time>
      </trkpt>
      <trkpt lat="44.79425" lon="3.92007">
        <ele>1164</ele>
        <time>2019-07-29T09:30:55Z</time>
      </trkpt>
      <trkpt lat="44.7943" lon="3.9203">
        <ele>1162</ele>
        <time>2019-07-29T09:31:10Z</time>
      </trkpt>
      <trkpt lat="44.79433" lon="3.92059">
        <ele>1161</ele>
        <time>2019-07-29T09:31:30Z</time>
      </trkpt>
      <trkpt lat="44.79446" lon="3.92093">
        <ele>1160</ele>
        <time>2019-07-29T09:31:50Z</time>
      </trkpt>
      <trkpt lat="44.79466" lon="3.92121">
        <ele>1159</ele>
        <time>2019-07-29T09:32:12Z</time>
      </trkpt>
      <trkpt lat="44.79487" lon="3.92136">
        <ele>1158</ele>
        <time>2019-07-29T09:32:34Z</time>
      </trkpt>
      <trkpt lat="44.79501" lon="3.92157">
        <ele>1157</ele>
        <time>2019-07-29T09:32:49Z</time>
      </trkpt>
      <trkpt lat="44.7951" lon="3.92188">
        <ele>1156</ele>
        <time>2019-07-29T09:33:09Z</time>
      </trkpt>
      <trkpt lat="44.79524" lon="3.92219">
        <ele>1155</ele>
        <time>2019-07-29T09:33:29Z</time>
      </trkpt>
      <trkpt lat="44.79537" lon="3.92251">
        <ele>1155</ele>
        <time>2019-07-29T09:33:49Z</time>
      </trkpt>
      <trkpt lat="44.79551" lon="3.92266">
        <ele>1154</ele>
        <time>2019-07-29T09:34:04Z</time>
      </trkpt>
      <trkpt lat="44.7957" lon="3.9228">
        <ele>1153</ele>
        <time>2019-07-29T09:34:29Z</time>
      </trkpt>
      <trkpt lat="44.79595" lon="3.92305">
        <ele>1152</ele>
        <time>2019-07-29T09:34:49Z</time>
      </trkpt>
      <trkpt lat="44.7962" lon="3.92328">
        <ele>1151</ele>
        <time>2019-07-29T09:35:09Z</time>
      </trkpt>
      <trkpt lat="44.7963" lon="3.9236">
        <ele>1150</ele>
        <time>2019-07-29T09:35:30Z</time>
      </trkpt>
      <trkpt lat="44.79634" lon="3.92366">
        <ele>1149</ele>
        <time>2019-07-29T09:36:00Z</time>
      </trkpt>
      <trkpt lat="44.79624" lon="3.92374">
        <ele>1148</ele>
        <time>2019-07-29T09:36:43Z</time>
      </trkpt>
      <trkpt lat="44.79624" lon="3.92371">
        <ele>1147</ele>
        <time>2019-07-29T09:37:43Z</time>
      </trkpt>
      <trkpt lat="44.79656" lon="3.92397">
        <ele>1132</ele>
        <time>2019-07-29T09:40:38Z</time>
      </trkpt>
      <trkpt lat="44.79668" lon="3.92421">
        <ele>1131</ele>
        <time>2019-07-29T09:40:53Z</time>
      </trkpt>
      <trkpt lat="44.79679" lon="3.92439">
        <ele>1130</ele>
        <time>2019-07-29T09:41:15Z</time>
      </trkpt>
      <trkpt lat="44.79702" lon="3.92449">
        <ele>1130</ele>
        <time>2019-07-29T09:41:36Z</time>
      </trkpt>
      <trkpt lat="44.79704" lon="3.92467">
        <ele>1131</ele>
        <time>2019-07-29T09:41:58Z</time>
      </trkpt>
      <trkpt lat="44.79706" lon="3.92497">
        <ele>1134</ele>
        <time>2019-07-29T09:42:19Z</time>
      </trkpt>
      <trkpt lat="44.79715" lon="3.92521">
        <ele>1135</ele>
        <time>2019-07-29T09:42:35Z</time>
      </trkpt>
      <trkpt lat="44.79731" lon="3.92547">
        <ele>1136</ele>
        <time>2019-07-29T09:42:55Z</time>
      </trkpt>
      <trkpt lat="44.79741" lon="3.92585">
        <ele>1138</ele>
        <time>2019-07-29T09:43:15Z</time>
      </trkpt>
      <trkpt lat="44.79748" lon="3.92618">
        <ele>1140</ele>
        <time>2019-07-29T09:43:35Z</time>
      </trkpt>
      <trkpt lat="44.79779" lon="3.92649">
        <ele>1141</ele>
        <time>2019-07-29T09:43:56Z</time>
      </trkpt>
      <trkpt lat="44.7979" lon="3.92651">
        <ele>1141</ele>
        <time>2019-07-29T09:44:18Z</time>
      </trkpt>
      <trkpt lat="44.79813" lon="3.9263">
        <ele>1142</ele>
        <time>2019-07-29T09:44:39Z</time>
      </trkpt>
      <trkpt lat="44.79823" lon="3.92595">
        <ele>1143</ele>
        <time>2019-07-29T09:45:03Z</time>
      </trkpt>
      <trkpt lat="44.79842" lon="3.92568">
        <ele>1145</ele>
        <time>2019-07-29T09:45:23Z</time>
      </trkpt>
      <trkpt lat="44.7985" lon="3.92548">
        <ele>1146</ele>
        <time>2019-07-29T09:45:39Z</time>
      </trkpt>
      <trkpt lat="44.79868" lon="3.92518">
        <ele>1148</ele>
        <time>2019-07-29T09:45:59Z</time>
      </trkpt>
      <trkpt lat="44.79882" lon="3.9249">
        <ele>1151</ele>
        <time>2019-07-29T09:46:20Z</time>
      </trkpt>
      <trkpt lat="44.79886" lon="3.92458">
        <ele>1154</ele>
        <time>2019-07-29T09:46:44Z</time>
      </trkpt>
      <trkpt lat="44.79886" lon="3.92427">
        <ele>1157</ele>
        <time>2019-07-29T09:47:07Z</time>
      </trkpt>
      <trkpt lat="44.79884" lon="3.92403">
        <ele>1159</ele>
        <time>2019-07-29T09:47:23Z</time>
      </trkpt>
      <trkpt lat="44.79875" lon="3.92366">
        <ele>1160</ele>
        <time>2019-07-29T09:47:43Z</time>
      </trkpt>
      <trkpt lat="44.79873" lon="3.92332">
        <ele>1162</ele>
        <time>2019-07-29T09:48:04Z</time>
      </trkpt>
      <trkpt lat="44.79873" lon="3.92295">
        <ele>1164</ele>
        <time>2019-07-29T09:48:24Z</time>
      </trkpt>
      <trkpt lat="44.79872" lon="3.92293">
        <ele>1165</ele>
        <time>2019-07-29T09:48:45Z</time>
      </trkpt>
      <trkpt lat="44.79885" lon="3.92322">
        <ele>1166</ele>
        <time>2019-07-29T09:49:10Z</time>
      </trkpt>
      <trkpt lat="44.79904" lon="3.92348">
        <ele>1168</ele>
        <time>2019-07-29T09:49:30Z</time>
      </trkpt>
      <trkpt lat="44.79923" lon="3.92373">
        <ele>1169</ele>
        <time>2019-07-29T09:49:50Z</time>
      </trkpt>
      <trkpt lat="44.79937" lon="3.92396">
        <ele>1169</ele>
        <time>2019-07-29T09:50:10Z</time>
      </trkpt>
      <trkpt lat="44.79938" lon="3.92397">
        <ele>1169</ele>
        <time>2019-07-29T09:50:59Z</time>
      </trkpt>
      <trkpt lat="44.79945" lon="3.92411">
        <ele>1170</ele>
        <time>2019-07-29T09:51:31Z</time>
      </trkpt>
      <trkpt lat="44.79961" lon="3.92433">
        <ele>1171</ele>
        <time>2019-07-29T09:51:59Z</time>
      </trkpt>
      <trkpt lat="44.79982" lon="3.92455">
        <ele>1171</ele>
        <time>2019-07-29T09:52:19Z</time>
      </trkpt>
      <trkpt lat="44.8" lon="3.92479">
        <ele>1171</ele>
        <time>2019-07-29T09:52:39Z</time>
      </trkpt>
      <trkpt lat="44.80017" lon="3.925">
        <ele>1171</ele>
        <time>2019-07-29T09:52:54Z</time>
      </trkpt>
      <trkpt lat="44.80035" lon="3.92524">
        <ele>1172</ele>
        <time>2019-07-29T09:53:14Z</time>
      </trkpt>
      <trkpt lat="44.80053" lon="3.92549">
        <ele>1172</ele>
        <time>2019-07-29T09:53:34Z</time>
      </trkpt>
      <trkpt lat="44.80071" lon="3.92578">
        <ele>1172</ele>
        <time>2019-07-29T09:53:54Z</time>
      </trkpt>
      <trkpt lat="44.80084" lon="3.92596">
        <ele>1172</ele>
        <time>2019-07-29T09:54:09Z</time>
      </trkpt>
      <trkpt lat="44.80102" lon="3.92617">
        <ele>1171</ele>
        <time>2019-07-29T09:54:34Z</time>
      </trkpt>
      <trkpt lat="44.80122" lon="3.92638">
        <ele>1170</ele>
        <time>2019-07-29T09:54:54Z</time>
      </trkpt>
      <trkpt lat="44.8015" lon="3.92646">
        <ele>1169</ele>
        <time>2019-07-29T09:55:14Z</time>
      </trkpt>
      <trkpt lat="44.80179" lon="3.92645">
        <ele>1167</ele>
        <time>2019-07-29T09:55:34Z</time>
      </trkpt>
      <trkpt lat="44.80198" lon="3.92645">
        <ele>1166</ele>
        <time>2019-07-29T09:55:49Z</time>
      </trkpt>
      <trkpt lat="44.80224" lon="3.92645">
        <ele>1164</ele>
        <time>2019-07-29T09:56:10Z</time>
      </trkpt>
      <trkpt lat="44.8025" lon="3.92642">
        <ele>1163</ele>
        <time>2019-07-29T09:56:31Z</time>
      </trkpt>
      <trkpt lat="44.80284" lon="3.92637">
        <ele>1161</ele>
        <time>2019-07-29T09:56:51Z</time>
      </trkpt>
      <trkpt lat="44.80302" lon="3.92633">
        <ele>1161</ele>
        <time>2019-07-29T09:57:06Z</time>
      </trkpt>
      <trkpt lat="44.80327" lon="3.92638">
        <ele>1160</ele>
        <time>2019-07-29T09:57:27Z</time>
      </trkpt>
      <trkpt lat="44.80351" lon="3.92648">
        <ele>1158</ele>
        <time>2019-07-29T09:57:48Z</time>
      </trkpt>
      <trkpt lat="44.80379" lon="3.92656">
        <ele>1158</ele>
        <time>2019-07-29T09:58:08Z</time>
      </trkpt>
      <trkpt lat="44.80402" lon="3.92663">
        <ele>1158</ele>
        <time>2019-07-29T09:58:28Z</time>
      </trkpt>
      <trkpt lat="44.8042" lon="3.92668">
        <ele>1158</ele>
        <time>2019-07-29T09:58:47Z</time>
      </trkpt>
      <trkpt lat="44.80454" lon="3.92669">
        <ele>1157</ele>
        <time>2019-07-29T09:59:07Z</time>
      </trkpt>
      <trkpt lat="44.80484" lon="3.92671">
        <ele>1156</ele>
        <time>2019-07-29T09:59:29Z</time>
      </trkpt>
      <trkpt lat="44.80518" lon="3.92665">
        <ele>1155</ele>
        <time>2019-07-29T09:59:54Z</time>
      </trkpt>
      <trkpt lat="44.80532" lon="3.92663">
        <ele>1154</ele>
        <time>2019-07-29T10:00:10Z</time>
      </trkpt>
      <trkpt lat="44.8057" lon="3.92656">
        <ele>1153</ele>
        <time>2019-07-29T10:00:30Z</time>
      </trkpt>
      <trkpt lat="44.80597" lon="3.92649">
        <ele>1152</ele>
        <time>2019-07-29T10:00:50Z</time>
      </trkpt>
      <trkpt lat="44.80624" lon="3.92646">
        <ele>1151</ele>
        <time>2019-07-29T10:01:10Z</time>
      </trkpt>
      <trkpt lat="44.80647" lon="3.92646">
        <ele>1150</ele>
        <time>2019-07-29T10:01:34Z</time>
      </trkpt>
      <trkpt lat="44.80666" lon="3.92642">
        <ele>1149</ele>
        <time>2019-07-29T10:01:49Z</time>
      </trkpt>
      <trkpt lat="44.80688" lon="3.92638">
        <ele>1147</ele>
        <time>2019-07-29T10:02:10Z</time>
      </trkpt>
      <trkpt lat="44.80721" lon="3.9264">
        <ele>1146</ele>
        <time>2019-07-29T10:02:30Z</time>
      </trkpt>
      <trkpt lat="44.8074" lon="3.92633">
        <ele>1145</ele>
        <time>2019-07-29T10:02:51Z</time>
      </trkpt>
      <trkpt lat="44.80766" lon="3.92619">
        <ele>1144</ele>
        <time>2019-07-29T10:03:11Z</time>
      </trkpt>
      <trkpt lat="44.8078" lon="3.92613">
        <ele>1144</ele>
        <time>2019-07-29T10:03:30Z</time>
      </trkpt>
      <trkpt lat="44.80814" lon="3.92609">
        <ele>1143</ele>
        <time>2019-07-29T10:03:51Z</time>
      </trkpt>
      <trkpt lat="44.80835" lon="3.92605">
        <ele>1142</ele>
        <time>2019-07-29T10:04:13Z</time>
      </trkpt>
      <trkpt lat="44.80858" lon="3.92603">
        <ele>1141</ele>
        <time>2019-07-29T10:04:33Z</time>
      </trkpt>
      <trkpt lat="44.80876" lon="3.92607">
        <ele>1141</ele>
        <time>2019-07-29T10:04:48Z</time>
      </trkpt>
      <trkpt lat="44.80897" lon="3.92611">
        <ele>1141</ele>
        <time>2019-07-29T10:05:11Z</time>
      </trkpt>
      <trkpt lat="44.80906" lon="3.92607">
        <ele>1140</ele>
        <time>2019-07-29T10:05:53Z</time>
      </trkpt>
      <trkpt lat="44.80907" lon="3.92609">
        <ele>1139</ele>
        <time>2019-07-29T10:06:45Z</time>
      </trkpt>
      <trkpt lat="44.80898" lon="3.92628">
        <ele>1139</ele>
        <time>2019-07-29T10:07:29Z</time>
      </trkpt>
      <trkpt lat="44.80866" lon="3.9268">
        <ele>1138</ele>
        <time>2019-07-29T10:08:09Z</time>
      </trkpt>
      <trkpt lat="44.80856" lon="3.92707">
        <ele>1137</ele>
        <time>2019-07-29T10:08:34Z</time>
      </trkpt>
      <trkpt lat="44.80845" lon="3.92738">
        <ele>1137</ele>
        <time>2019-07-29T10:08:54Z</time>
      </trkpt>
      <trkpt lat="44.80829" lon="3.92766">
        <ele>1136</ele>
        <time>2019-07-29T10:09:18Z</time>
      </trkpt>
      <trkpt lat="44.80813" lon="3.92781">
        <ele>1135</ele>
        <time>2019-07-29T10:09:33Z</time>
      </trkpt>
      <trkpt lat="44.80796" lon="3.92803">
        <ele>1135</ele>
        <time>2019-07-29T10:09:56Z</time>
      </trkpt>
      <trkpt lat="44.80784" lon="3.92837">
        <ele>1134</ele>
        <time>2019-07-29T10:10:16Z</time>
      </trkpt>
      <trkpt lat="44.80784" lon="3.92878">
        <ele>1134</ele>
        <time>2019-07-29T10:10:36Z</time>
      </trkpt>
      <trkpt lat="44.80785" lon="3.92915">
        <ele>1134</ele>
        <time>2019-07-29T10:10:56Z</time>
      </trkpt>
      <trkpt lat="44.8079" lon="3.92941">
        <ele>1134</ele>
        <time>2019-07-29T10:11:11Z</time>
      </trkpt>
      <trkpt lat="44.80787" lon="3.92982">
        <ele>1135</ele>
        <time>2019-07-29T10:11:31Z</time>
      </trkpt>
      <trkpt lat="44.80784" lon="3.93017">
        <ele>1135</ele>
        <time>2019-07-29T10:11:52Z</time>
      </trkpt>
      <trkpt lat="44.80777" lon="3.93051">
        <ele>1135</ele>
        <time>2019-07-29T10:12:16Z</time>
      </trkpt>
      <trkpt lat="44.80778" lon="3.93102">
        <ele>1135</ele>
        <time>2019-07-29T10:12:36Z</time>
      </trkpt>
      <trkpt lat="44.80773" lon="3.93138">
        <ele>1135</ele>
        <time>2019-07-29T10:12:51Z</time>
      </trkpt>
      <trkpt lat="44.80769" lon="3.93165">
        <ele>1135</ele>
        <time>2019-07-29T10:13:11Z</time>
      </trkpt>
      <trkpt lat="44.80766" lon="3.93199">
        <ele>1135</ele>
        <time>2019-07-29T10:13:31Z</time>
      </trkpt>
      <trkpt lat="44.80763" lon="3.93233">
        <ele>1133</ele>
        <time>2019-07-29T10:13:58Z</time>
      </trkpt>
      <trkpt lat="44.80766" lon="3.93256">
        <ele>1132</ele>
        <time>2019-07-29T10:14:14Z</time>
      </trkpt>
      <trkpt lat="44.80785" lon="3.9327">
        <ele>1130</ele>
        <time>2019-07-29T10:14:34Z</time>
      </trkpt>
      <trkpt lat="44.80803" lon="3.93295">
        <ele>1129</ele>
        <time>2019-07-29T10:14:56Z</time>
      </trkpt>
      <trkpt lat="44.80813" lon="3.93302">
        <ele>1128</ele>
        <time>2019-07-29T10:15:19Z</time>
      </trkpt>
      <trkpt lat="44.80867" lon="3.93316">
        <ele>1128</ele>
        <time>2019-07-29T10:15:58Z</time>
      </trkpt>
      <trkpt lat="44.80877" lon="3.93345">
        <ele>1126</ele>
        <time>2019-07-29T10:16:13Z</time>
      </trkpt>
      <trkpt lat="44.80882" lon="3.93372">
        <ele>1124</ele>
        <time>2019-07-29T10:16:42Z</time>
      </trkpt>
      <trkpt lat="44.80898" lon="3.93393">
        <ele>1122</ele>
        <time>2019-07-29T10:17:07Z</time>
      </trkpt>
      <trkpt lat="44.80918" lon="3.9341">
        <ele>1120</ele>
        <time>2019-07-29T10:17:29Z</time>
      </trkpt>
      <trkpt lat="44.80944" lon="3.93419">
        <ele>1119</ele>
        <time>2019-07-29T10:17:44Z</time>
      </trkpt>
      <trkpt lat="44.80962" lon="3.93432">
        <ele>1118</ele>
        <time>2019-07-29T10:18:07Z</time>
      </trkpt>
      <trkpt lat="44.80986" lon="3.93438">
        <ele>1117</ele>
        <time>2019-07-29T10:18:30Z</time>
      </trkpt>
      <trkpt lat="44.81014" lon="3.93459">
        <ele>1116</ele>
        <time>2019-07-29T10:18:50Z</time>
      </trkpt>
      <trkpt lat="44.81039" lon="3.93474">
        <ele>1114</ele>
        <time>2019-07-29T10:19:16Z</time>
      </trkpt>
      <trkpt lat="44.81061" lon="3.93493">
        <ele>1112</ele>
        <time>2019-07-29T10:19:31Z</time>
      </trkpt>
      <trkpt lat="44.81085" lon="3.93524">
        <ele>1110</ele>
        <time>2019-07-29T10:19:54Z</time>
      </trkpt>
      <trkpt lat="44.81093" lon="3.93543">
        <ele>1108</ele>
        <time>2019-07-29T10:20:18Z</time>
      </trkpt>
      <trkpt lat="44.81122" lon="3.93543">
        <ele>1107</ele>
        <time>2019-07-29T10:20:39Z</time>
      </trkpt>
      <trkpt lat="44.81148" lon="3.93563">
        <ele>1105</ele>
        <time>2019-07-29T10:21:02Z</time>
      </trkpt>
      <trkpt lat="44.81158" lon="3.93579">
        <ele>1104</ele>
        <time>2019-07-29T10:21:17Z</time>
      </trkpt>
      <trkpt lat="44.81183" lon="3.9358">
        <ele>1103</ele>
        <time>2019-07-29T10:21:37Z</time>
      </trkpt>
      <trkpt lat="44.81218" lon="3.93574">
        <ele>1101</ele>
        <time>2019-07-29T10:21:58Z</time>
      </trkpt>
      <trkpt lat="44.81246" lon="3.93596">
        <ele>1099</ele>
        <time>2019-07-29T10:22:18Z</time>
      </trkpt>
      <trkpt lat="44.81269" lon="3.9361">
        <ele>1097</ele>
        <time>2019-07-29T10:22:38Z</time>
      </trkpt>
      <trkpt lat="44.81295" lon="3.93617">
        <ele>1095</ele>
        <time>2019-07-29T10:23:00Z</time>
      </trkpt>
      <trkpt lat="44.8133" lon="3.93607">
        <ele>1094</ele>
        <time>2019-07-29T10:23:21Z</time>
      </trkpt>
      <trkpt lat="44.81351" lon="3.93623">
        <ele>1093</ele>
        <time>2019-07-29T10:23:45Z</time>
      </trkpt>
      <trkpt lat="44.81376" lon="3.9366">
        <ele>1092</ele>
        <time>2019-07-29T10:24:05Z</time>
      </trkpt>
      <trkpt lat="44.81385" lon="3.93676">
        <ele>1092</ele>
        <time>2019-07-29T10:24:21Z</time>
      </trkpt>
      <trkpt lat="44.81399" lon="3.93681">
        <ele>1092</ele>
        <time>2019-07-29T10:24:59Z</time>
      </trkpt>
      <trkpt lat="44.81403" lon="3.93686">
        <ele>1092</ele>
        <time>2019-07-29T10:25:41Z</time>
      </trkpt>
      <trkpt lat="44.81425" lon="3.93711">
        <ele>1094</ele>
        <time>2019-07-29T10:26:01Z</time>
      </trkpt>
      <trkpt lat="44.81442" lon="3.93724">
        <ele>1094</ele>
        <time>2019-07-29T10:26:17Z</time>
      </trkpt>
      <trkpt lat="44.81469" lon="3.93742">
        <ele>1094</ele>
        <time>2019-07-29T10:26:57Z</time>
      </trkpt>
      <trkpt lat="44.81497" lon="3.93747">
        <ele>1092</ele>
        <time>2019-07-29T10:27:17Z</time>
      </trkpt>
      <trkpt lat="44.81516" lon="3.93753">
        <ele>1089</ele>
        <time>2019-07-29T10:28:00Z</time>
      </trkpt>
      <trkpt lat="44.81522" lon="3.93758">
        <ele>1088</ele>
        <time>2019-07-29T10:28:49Z</time>
      </trkpt>
      <trkpt lat="44.81534" lon="3.93761">
        <ele>1085</ele>
        <time>2019-07-29T10:29:30Z</time>
      </trkpt>
      <trkpt lat="44.81555" lon="3.93763">
        <ele>1079</ele>
        <time>2019-07-29T10:34:06Z</time>
      </trkpt>
      <trkpt lat="44.81572" lon="3.93749">
        <ele>1078</ele>
        <time>2019-07-29T10:34:27Z</time>
      </trkpt>
      <trkpt lat="44.81596" lon="3.93737">
        <ele>1078</ele>
        <time>2019-07-29T10:34:48Z</time>
      </trkpt>
      <trkpt lat="44.8161" lon="3.9373">
        <ele>1078</ele>
        <time>2019-07-29T10:35:24Z</time>
      </trkpt>
      <trkpt lat="44.81631" lon="3.93713">
        <ele>1077</ele>
        <time>2019-07-29T10:35:44Z</time>
      </trkpt>
      <trkpt lat="44.81659" lon="3.93707">
        <ele>1076</ele>
        <time>2019-07-29T10:36:08Z</time>
      </trkpt>
      <trkpt lat="44.81688" lon="3.93706">
        <ele>1075</ele>
        <time>2019-07-29T10:36:28Z</time>
      </trkpt>
      <trkpt lat="44.8171" lon="3.93714">
        <ele>1074</ele>
        <time>2019-07-29T10:36:48Z</time>
      </trkpt>
      <trkpt lat="44.8173" lon="3.93721">
        <ele>1073</ele>
        <time>2019-07-29T10:37:03Z</time>
      </trkpt>
      <trkpt lat="44.81751" lon="3.93734">
        <ele>1072</ele>
        <time>2019-07-29T10:37:23Z</time>
      </trkpt>
      <trkpt lat="44.81774" lon="3.93752">
        <ele>1071</ele>
        <time>2019-07-29T10:37:43Z</time>
      </trkpt>
      <trkpt lat="44.81791" lon="3.93772">
        <ele>1071</ele>
        <time>2019-07-29T10:38:05Z</time>
      </trkpt>
      <trkpt lat="44.81807" lon="3.93794">
        <ele>1070</ele>
        <time>2019-07-29T10:38:25Z</time>
      </trkpt>
      <trkpt lat="44.81819" lon="3.93813">
        <ele>1070</ele>
        <time>2019-07-29T10:38:43Z</time>
      </trkpt>
      <trkpt lat="44.81834" lon="3.93844">
        <ele>1070</ele>
        <time>2019-07-29T10:39:03Z</time>
      </trkpt>
      <trkpt lat="44.81854" lon="3.93869">
        <ele>1069</ele>
        <time>2019-07-29T10:39:23Z</time>
      </trkpt>
      <trkpt lat="44.81873" lon="3.93899">
        <ele>1068</ele>
        <time>2019-07-29T10:39:43Z</time>
      </trkpt>
      <trkpt lat="44.81886" lon="3.93921">
        <ele>1066</ele>
        <time>2019-07-29T10:39:58Z</time>
      </trkpt>
      <trkpt lat="44.819" lon="3.93948">
        <ele>1063</ele>
        <time>2019-07-29T10:40:18Z</time>
      </trkpt>
      <trkpt lat="44.81914" lon="3.93976">
        <ele>1059</ele>
        <time>2019-07-29T10:40:38Z</time>
      </trkpt>
      <trkpt lat="44.81943" lon="3.93971">
        <ele>1055</ele>
        <time>2019-07-29T10:41:00Z</time>
      </trkpt>
      <trkpt lat="44.81972" lon="3.93975">
        <ele>1051</ele>
        <time>2019-07-29T10:41:20Z</time>
      </trkpt>
      <trkpt lat="44.81971" lon="3.93997">
        <ele>1048</ele>
        <time>2019-07-29T10:41:39Z</time>
      </trkpt>
      <trkpt lat="44.81952" lon="3.94019">
        <ele>1045</ele>
        <time>2019-07-29T10:41:59Z</time>
      </trkpt>
      <trkpt lat="44.81939" lon="3.94048">
        <ele>1043</ele>
        <time>2019-07-29T10:42:22Z</time>
      </trkpt>
      <trkpt lat="44.81918" lon="3.94072">
        <ele>1040</ele>
        <time>2019-07-29T10:42:42Z</time>
      </trkpt>
      <trkpt lat="44.81905" lon="3.94101">
        <ele>1038</ele>
        <time>2019-07-29T10:42:57Z</time>
      </trkpt>
      <trkpt lat="44.81897" lon="3.94141">
        <ele>1034</ele>
        <time>2019-07-29T10:43:17Z</time>
      </trkpt>
      <trkpt lat="44.81896" lon="3.9417">
        <ele>1030</ele>
        <time>2019-07-29T10:43:37Z</time>
      </trkpt>
      <trkpt lat="44.81915" lon="3.94192">
        <ele>1027</ele>
        <time>2019-07-29T10:43:58Z</time>
      </trkpt>
      <trkpt lat="44.8193" lon="3.94219">
        <ele>1023</ele>
        <time>2019-07-29T10:44:18Z</time>
      </trkpt>
      <trkpt lat="44.81947" lon="3.94228">
        <ele>1020</ele>
        <time>2019-07-29T10:44:33Z</time>
      </trkpt>
      <trkpt lat="44.81994" lon="3.94226">
        <ele>1014</ele>
        <time>2019-07-29T10:45:12Z</time>
      </trkpt>
      <trkpt lat="44.82022" lon="3.94204">
        <ele>1009</ele>
        <time>2019-07-29T10:45:32Z</time>
      </trkpt>
      <trkpt lat="44.82031" lon="3.94213">
        <ele>1005</ele>
        <time>2019-07-29T10:45:58Z</time>
      </trkpt>
      <trkpt lat="44.82039" lon="3.94231">
        <ele>1002</ele>
        <time>2019-07-29T10:46:45Z</time>
      </trkpt>
      <trkpt lat="44.82038" lon="3.94227">
        <ele>999</ele>
        <time>2019-07-29T10:47:07Z</time>
      </trkpt>
      <trkpt lat="44.82038" lon="3.94223">
        <ele>995</ele>
        <time>2019-07-29T10:48:00Z</time>
      </trkpt>
      <trkpt lat="44.82059" lon="3.94195">
        <ele>986</ele>
        <time>2019-07-29T10:48:38Z</time>
      </trkpt>
      <trkpt lat="44.82084" lon="3.94191">
        <ele>983</ele>
        <time>2019-07-29T10:49:12Z</time>
      </trkpt>
      <trkpt lat="44.821" lon="3.94205">
        <ele>981</ele>
        <time>2019-07-29T10:49:27Z</time>
      </trkpt>
      <trkpt lat="44.82113" lon="3.94181">
        <ele>981</ele>
        <time>2019-07-29T10:49:47Z</time>
      </trkpt>
      <trkpt lat="44.82123" lon="3.94153">
        <ele>980</ele>
        <time>2019-07-29T10:50:08Z</time>
      </trkpt>
      <trkpt lat="44.82142" lon="3.94108">
        <ele>976</ele>
        <time>2019-07-29T10:50:51Z</time>
      </trkpt>
      <trkpt lat="44.82148" lon="3.9408">
        <ele>973</ele>
        <time>2019-07-29T10:51:17Z</time>
      </trkpt>
      <trkpt lat="44.82152" lon="3.94059">
        <ele>972</ele>
        <time>2019-07-29T10:51:36Z</time>
      </trkpt>
      <trkpt lat="44.82156" lon="3.94023">
        <ele>971</ele>
        <time>2019-07-29T10:52:09Z</time>
      </trkpt>
      <trkpt lat="44.82163" lon="3.9402">
        <ele>989</ele>
        <time>2019-07-29T10:58:02Z</time>
      </trkpt>
      <trkpt lat="44.8217" lon="3.94047">
        <ele>992</ele>
        <time>2019-07-29T10:58:29Z</time>
      </trkpt>
      <trkpt lat="44.82172" lon="3.9408">
        <ele>994</ele>
        <time>2019-07-29T10:58:50Z</time>
      </trkpt>
      <trkpt lat="44.82182" lon="3.94105">
        <ele>995</ele>
        <time>2019-07-29T10:59:11Z</time>
      </trkpt>
      <trkpt lat="44.82187" lon="3.9413">
        <ele>995</ele>
        <time>2019-07-29T10:59:26Z</time>
      </trkpt>
      <trkpt lat="44.82185" lon="3.94157">
        <ele>996</ele>
        <time>2019-07-29T10:59:50Z</time>
      </trkpt>
      <trkpt lat="44.82193" lon="3.94192">
        <ele>997</ele>
        <time>2019-07-29T11:00:10Z</time>
      </trkpt>
      <trkpt lat="44.82212" lon="3.94197">
        <ele>999</ele>
        <time>2019-07-29T11:00:37Z</time>
      </trkpt>
      <trkpt lat="44.82233" lon="3.94197">
        <ele>1001</ele>
        <time>2019-07-29T11:00:59Z</time>
      </trkpt>
      <trkpt lat="44.8225" lon="3.94188">
        <ele>1002</ele>
        <time>2019-07-29T11:01:14Z</time>
      </trkpt>
      <trkpt lat="44.82272" lon="3.94187">
        <ele>1004</ele>
        <time>2019-07-29T11:01:34Z</time>
      </trkpt>
      <trkpt lat="44.82292" lon="3.94172">
        <ele>1006</ele>
        <time>2019-07-29T11:01:55Z</time>
      </trkpt>
      <trkpt lat="44.82306" lon="3.94154">
        <ele>1009</ele>
        <time>2019-07-29T11:02:26Z</time>
      </trkpt>
      <trkpt lat="44.82333" lon="3.9411">
        <ele>1048</ele>
        <time>2019-07-29T11:37:09Z</time>
      </trkpt>
      <trkpt lat="44.82343" lon="3.94096">
        <ele>1061</ele>
        <time>2019-07-29T11:37:31Z</time>
      </trkpt>
      <trkpt lat="44.82357" lon="3.94071">
        <ele>1060</ele>
        <time>2019-07-29T11:38:07Z</time>
      </trkpt>
      <trkpt lat="44.82372" lon="3.94049">
        <ele>1056</ele>
        <time>2019-07-29T11:38:31Z</time>
      </trkpt>
      <trkpt lat="44.82382" lon="3.94022">
        <ele>1055</ele>
        <time>2019-07-29T11:38:52Z</time>
      </trkpt>
      <trkpt lat="44.82386" lon="3.93995">
        <ele>1055</ele>
        <time>2019-07-29T11:39:11Z</time>
      </trkpt>
      <trkpt lat="44.82404" lon="3.9397">
        <ele>1054</ele>
        <time>2019-07-29T11:39:31Z</time>
      </trkpt>
      <trkpt lat="44.82398" lon="3.93956">
        <ele>1053</ele>
        <time>2019-07-29T11:40:09Z</time>
      </trkpt>
      <trkpt lat="44.82436" lon="3.9397">
        <ele>1049</ele>
        <time>2019-07-29T11:40:37Z</time>
      </trkpt>
      <trkpt lat="44.82449" lon="3.93997">
        <ele>1047</ele>
        <time>2019-07-29T11:40:59Z</time>
      </trkpt>
      <trkpt lat="44.82483" lon="3.93998">
        <ele>1048</ele>
        <time>2019-07-29T11:41:28Z</time>
      </trkpt>
      <trkpt lat="44.82519" lon="3.9401">
        <ele>1048</ele>
        <time>2019-07-29T11:41:48Z</time>
      </trkpt>
      <trkpt lat="44.82528" lon="3.94014">
        <ele>1047</ele>
        <time>2019-07-29T11:42:13Z</time>
      </trkpt>
      <trkpt lat="44.82641" lon="3.94038">
        <ele>1057</ele>
        <time>2019-07-29T11:44:03Z</time>
      </trkpt>
      <trkpt lat="44.82659" lon="3.94045">
        <ele>1058</ele>
        <time>2019-07-29T11:44:24Z</time>
      </trkpt>
      <trkpt lat="44.82692" lon="3.94057">
        <ele>1057</ele>
        <time>2019-07-29T11:44:45Z</time>
      </trkpt>
      <trkpt lat="44.82713" lon="3.94055">
        <ele>1055</ele>
        <time>2019-07-29T11:45:05Z</time>
      </trkpt>
      <trkpt lat="44.82723" lon="3.94066">
        <ele>1053</ele>
        <time>2019-07-29T11:45:34Z</time>
      </trkpt>
      <trkpt lat="44.82737" lon="3.9409">
        <ele>1053</ele>
        <time>2019-07-29T11:46:01Z</time>
      </trkpt>
      <trkpt lat="44.82752" lon="3.941">
        <ele>1053</ele>
        <time>2019-07-29T11:46:22Z</time>
      </trkpt>
      <trkpt lat="44.82787" lon="3.94074">
        <ele>1051</ele>
        <time>2019-07-29T11:46:49Z</time>
      </trkpt>
      <trkpt lat="44.82818" lon="3.94059">
        <ele>1049</ele>
        <time>2019-07-29T11:47:09Z</time>
      </trkpt>
      <trkpt lat="44.8284" lon="3.94048">
        <ele>1047</ele>
        <time>2019-07-29T11:47:29Z</time>
      </trkpt>
      <trkpt lat="44.82853" lon="3.94033">
        <ele>1046</ele>
        <time>2019-07-29T11:47:44Z</time>
      </trkpt>
      <trkpt lat="44.82869" lon="3.94012">
        <ele>1046</ele>
        <time>2019-07-29T11:48:05Z</time>
      </trkpt>
      <trkpt lat="44.82887" lon="3.93993">
        <ele>1045</ele>
        <time>2019-07-29T11:48:25Z</time>
      </trkpt>
      <trkpt lat="44.82909" lon="3.93979">
        <ele>1044</ele>
        <time>2019-07-29T11:48:49Z</time>
      </trkpt>
      <trkpt lat="44.82934" lon="3.93962">
        <ele>1043</ele>
        <time>2019-07-29T11:49:09Z</time>
      </trkpt>
      <trkpt lat="44.82949" lon="3.93955">
        <ele>1042</ele>
        <time>2019-07-29T11:49:24Z</time>
      </trkpt>
      <trkpt lat="44.82965" lon="3.93933">
        <ele>1041</ele>
        <time>2019-07-29T11:49:45Z</time>
      </trkpt>
      <trkpt lat="44.8298" lon="3.939">
        <ele>1039</ele>
        <time>2019-07-29T11:50:05Z</time>
      </trkpt>
      <trkpt lat="44.83" lon="3.93871">
        <ele>1038</ele>
        <time>2019-07-29T11:50:27Z</time>
      </trkpt>
      <trkpt lat="44.83009" lon="3.93846">
        <ele>1038</ele>
        <time>2019-07-29T11:50:42Z</time>
      </trkpt>
      <trkpt lat="44.83032" lon="3.93826">
        <ele>1037</ele>
        <time>2019-07-29T11:51:02Z</time>
      </trkpt>
      <trkpt lat="44.83045" lon="3.938">
        <ele>1036</ele>
        <time>2019-07-29T11:51:22Z</time>
      </trkpt>
      <trkpt lat="44.83049" lon="3.93758">
        <ele>1035</ele>
        <time>2019-07-29T11:51:42Z</time>
      </trkpt>
      <trkpt lat="44.83039" lon="3.93716">
        <ele>1034</ele>
        <time>2019-07-29T11:52:02Z</time>
      </trkpt>
      <trkpt lat="44.83027" lon="3.93687">
        <ele>1035</ele>
        <time>2019-07-29T11:52:17Z</time>
      </trkpt>
      <trkpt lat="44.83012" lon="3.93656">
        <ele>1037</ele>
        <time>2019-07-29T11:52:37Z</time>
      </trkpt>
      <trkpt lat="44.83007" lon="3.93625">
        <ele>1039</ele>
        <time>2019-07-29T11:52:59Z</time>
      </trkpt>
      <trkpt lat="44.83018" lon="3.93599">
        <ele>1040</ele>
        <time>2019-07-29T11:53:23Z</time>
      </trkpt>
      <trkpt lat="44.83028" lon="3.93568">
        <ele>1041</ele>
        <time>2019-07-29T11:53:43Z</time>
      </trkpt>
      <trkpt lat="44.83035" lon="3.93548">
        <ele>1041</ele>
        <time>2019-07-29T11:53:59Z</time>
      </trkpt>
      <trkpt lat="44.83052" lon="3.93525">
        <ele>1041</ele>
        <time>2019-07-29T11:54:20Z</time>
      </trkpt>
      <trkpt lat="44.83065" lon="3.93499">
        <ele>1042</ele>
        <time>2019-07-29T11:54:41Z</time>
      </trkpt>
      <trkpt lat="44.83077" lon="3.93467">
        <ele>1046</ele>
        <time>2019-07-29T11:55:05Z</time>
      </trkpt>
      <trkpt lat="44.83085" lon="3.93447">
        <ele>1048</ele>
        <time>2019-07-29T11:55:20Z</time>
      </trkpt>
      <trkpt lat="44.83088" lon="3.93415">
        <ele>1050</ele>
        <time>2019-07-29T11:55:41Z</time>
      </trkpt>
      <trkpt lat="44.83095" lon="3.9338">
        <ele>1052</ele>
        <time>2019-07-29T11:56:02Z</time>
      </trkpt>
      <trkpt lat="44.831" lon="3.9335">
        <ele>1053</ele>
        <time>2019-07-29T11:56:23Z</time>
      </trkpt>
      <trkpt lat="44.83102" lon="3.93328">
        <ele>1054</ele>
        <time>2019-07-29T11:56:53Z</time>
      </trkpt>
      <trkpt lat="44.83098" lon="3.93308">
        <ele>1055</ele>
        <time>2019-07-29T11:57:18Z</time>
      </trkpt>
      <trkpt lat="44.83077" lon="3.93248">
        <ele>1056</ele>
        <time>2019-07-29T11:57:38Z</time>
      </trkpt>
      <trkpt lat="44.83045" lon="3.93198">
        <ele>1055</ele>
        <time>2019-07-29T11:57:58Z</time>
      </trkpt>
      <trkpt lat="44.83026" lon="3.93175">
        <ele>1056</ele>
        <time>2019-07-29T11:58:18Z</time>
      </trkpt>
      <trkpt lat="44.83014" lon="3.93161">
        <ele>1057</ele>
        <time>2019-07-29T11:58:33Z</time>
      </trkpt>
      <trkpt lat="44.82994" lon="3.93134">
        <ele>1060</ele>
        <time>2019-07-29T11:58:53Z</time>
      </trkpt>
      <trkpt lat="44.82975" lon="3.93111">
        <ele>1062</ele>
        <time>2019-07-29T11:59:13Z</time>
      </trkpt>
      <trkpt lat="44.82961" lon="3.93091">
        <ele>1064</ele>
        <time>2019-07-29T11:59:44Z</time>
      </trkpt>
      <trkpt lat="44.82946" lon="3.9307">
        <ele>1066</ele>
        <time>2019-07-29T12:00:06Z</time>
      </trkpt>
      <trkpt lat="44.82932" lon="3.93049">
        <ele>1067</ele>
        <time>2019-07-29T12:00:21Z</time>
      </trkpt>
      <trkpt lat="44.82914" lon="3.93033">
        <ele>1067</ele>
        <time>2019-07-29T12:00:41Z</time>
      </trkpt>
      <trkpt lat="44.82901" lon="3.93029">
        <ele>1069</ele>
        <time>2019-07-29T12:01:15Z</time>
      </trkpt>
      <trkpt lat="44.82877" lon="3.93011">
        <ele>1072</ele>
        <time>2019-07-29T12:01:35Z</time>
      </trkpt>
      <trkpt lat="44.82856" lon="3.92995">
        <ele>1076</ele>
        <time>2019-07-29T12:01:55Z</time>
      </trkpt>
      <trkpt lat="44.82842" lon="3.92981">
        <ele>1078</ele>
        <time>2019-07-29T12:02:10Z</time>
      </trkpt>
      <trkpt lat="44.82824" lon="3.92957">
        <ele>1080</ele>
        <time>2019-07-29T12:02:30Z</time>
      </trkpt>
      <trkpt lat="44.82803" lon="3.92938">
        <ele>1081</ele>
        <time>2019-07-29T12:02:50Z</time>
      </trkpt>
      <trkpt lat="44.82789" lon="3.92914">
        <ele>1083</ele>
        <time>2019-07-29T12:03:10Z</time>
      </trkpt>
      <trkpt lat="44.82779" lon="3.92893">
        <ele>1084</ele>
        <time>2019-07-29T12:03:26Z</time>
      </trkpt>
      <trkpt lat="44.82764" lon="3.92864">
        <ele>1085</ele>
        <time>2019-07-29T12:03:46Z</time>
      </trkpt>
      <trkpt lat="44.8275" lon="3.92838">
        <ele>1086</ele>
        <time>2019-07-29T12:04:07Z</time>
      </trkpt>
      <trkpt lat="44.8273" lon="3.92811">
        <ele>1088</ele>
        <time>2019-07-29T12:04:27Z</time>
      </trkpt>
      <trkpt lat="44.8271" lon="3.92791">
        <ele>1089</ele>
        <time>2019-07-29T12:04:47Z</time>
      </trkpt>
      <trkpt lat="44.82693" lon="3.92778">
        <ele>1089</ele>
        <time>2019-07-29T12:05:03Z</time>
      </trkpt>
      <trkpt lat="44.82672" lon="3.92766">
        <ele>1089</ele>
        <time>2019-07-29T12:05:23Z</time>
      </trkpt>
      <trkpt lat="44.8265" lon="3.92752">
        <ele>1089</ele>
        <time>2019-07-29T12:05:43Z</time>
      </trkpt>
      <trkpt lat="44.82633" lon="3.92728">
        <ele>1090</ele>
        <time>2019-07-29T12:06:09Z</time>
      </trkpt>
      <trkpt lat="44.82621" lon="3.92712">
        <ele>1090</ele>
        <time>2019-07-29T12:06:24Z</time>
      </trkpt>
      <trkpt lat="44.82605" lon="3.92694">
        <ele>1090</ele>
        <time>2019-07-29T12:06:45Z</time>
      </trkpt>
      <trkpt lat="44.82595" lon="3.92663">
        <ele>1090</ele>
        <time>2019-07-29T12:07:06Z</time>
      </trkpt>
      <trkpt lat="44.82583" lon="3.92636">
        <ele>1091</ele>
        <time>2019-07-29T12:07:29Z</time>
      </trkpt>
      <trkpt lat="44.82565" lon="3.92621">
        <ele>1093</ele>
        <time>2019-07-29T12:07:49Z</time>
      </trkpt>
      <trkpt lat="44.82551" lon="3.92613">
        <ele>1094</ele>
        <time>2019-07-29T12:08:06Z</time>
      </trkpt>
      <trkpt lat="44.8253" lon="3.926">
        <ele>1096</ele>
        <time>2019-07-29T12:08:26Z</time>
      </trkpt>
      <trkpt lat="44.82508" lon="3.92592">
        <ele>1097</ele>
        <time>2019-07-29T12:08:47Z</time>
      </trkpt>
      <trkpt lat="44.82487" lon="3.92577">
        <ele>1098</ele>
        <time>2019-07-29T12:09:07Z</time>
      </trkpt>
      <trkpt lat="44.8247" lon="3.92566">
        <ele>1099</ele>
        <time>2019-07-29T12:09:22Z</time>
      </trkpt>
      <trkpt lat="44.82447" lon="3.92553">
        <ele>1099</ele>
        <time>2019-07-29T12:09:42Z</time>
      </trkpt>
      <trkpt lat="44.82428" lon="3.92536">
        <ele>1100</ele>
        <time>2019-07-29T12:10:02Z</time>
      </trkpt>
      <trkpt lat="44.82408" lon="3.92521">
        <ele>1100</ele>
        <time>2019-07-29T12:10:22Z</time>
      </trkpt>
      <trkpt lat="44.82389" lon="3.92506">
        <ele>1100</ele>
        <time>2019-07-29T12:10:42Z</time>
      </trkpt>
      <trkpt lat="44.82373" lon="3.92495">
        <ele>1100</ele>
        <time>2019-07-29T12:10:57Z</time>
      </trkpt>
      <trkpt lat="44.82347" lon="3.92483">
        <ele>1100</ele>
        <time>2019-07-29T12:11:17Z</time>
      </trkpt>
      <trkpt lat="44.82327" lon="3.92469">
        <ele>1101</ele>
        <time>2019-07-29T12:11:37Z</time>
      </trkpt>
      <trkpt lat="44.82306" lon="3.92451">
        <ele>1101</ele>
        <time>2019-07-29T12:11:57Z</time>
      </trkpt>
      <trkpt lat="44.82286" lon="3.92432">
        <ele>1102</ele>
        <time>2019-07-29T12:12:17Z</time>
      </trkpt>
      <trkpt lat="44.8228" lon="3.9241">
        <ele>1103</ele>
        <time>2019-07-29T12:12:35Z</time>
      </trkpt>
      <trkpt lat="44.82281" lon="3.92382">
        <ele>1104</ele>
        <time>2019-07-29T12:12:56Z</time>
      </trkpt>
      <trkpt lat="44.8228" lon="3.92346">
        <ele>1105</ele>
        <time>2019-07-29T12:13:26Z</time>
      </trkpt>
      <trkpt lat="44.82274" lon="3.92318">
        <ele>1105</ele>
        <time>2019-07-29T12:13:55Z</time>
      </trkpt>
      <trkpt lat="44.82257" lon="3.92297">
        <ele>1105</ele>
        <time>2019-07-29T12:14:10Z</time>
      </trkpt>
      <trkpt lat="44.82239" lon="3.92277">
        <ele>1106</ele>
        <time>2019-07-29T12:14:30Z</time>
      </trkpt>
      <trkpt lat="44.82225" lon="3.92245">
        <ele>1106</ele>
        <time>2019-07-29T12:14:51Z</time>
      </trkpt>
      <trkpt lat="44.82213" lon="3.92221">
        <ele>1107</ele>
        <time>2019-07-29T12:15:12Z</time>
      </trkpt>
      <trkpt lat="44.82195" lon="3.92201">
        <ele>1108</ele>
        <time>2019-07-29T12:15:34Z</time>
      </trkpt>
      <trkpt lat="44.82182" lon="3.92182">
        <ele>1108</ele>
        <time>2019-07-29T12:15:49Z</time>
      </trkpt>
      <trkpt lat="44.82164" lon="3.92166">
        <ele>1109</ele>
        <time>2019-07-29T12:16:10Z</time>
      </trkpt>
      <trkpt lat="44.82147" lon="3.92146">
        <ele>1109</ele>
        <time>2019-07-29T12:16:30Z</time>
      </trkpt>
      <trkpt lat="44.82131" lon="3.92125">
        <ele>1110</ele>
        <time>2019-07-29T12:16:52Z</time>
      </trkpt>
      <trkpt lat="44.82121" lon="3.92108">
        <ele>1110</ele>
        <time>2019-07-29T12:17:08Z</time>
      </trkpt>
      <trkpt lat="44.82105" lon="3.92071">
        <ele>1110</ele>
        <time>2019-07-29T12:17:31Z</time>
      </trkpt>
      <trkpt lat="44.82089" lon="3.9205">
        <ele>1111</ele>
        <time>2019-07-29T12:17:53Z</time>
      </trkpt>
      <trkpt lat="44.82074" lon="3.92023">
        <ele>1112</ele>
        <time>2019-07-29T12:18:15Z</time>
      </trkpt>
      <trkpt lat="44.82058" lon="3.91996">
        <ele>1113</ele>
        <time>2019-07-29T12:18:36Z</time>
      </trkpt>
      <trkpt lat="44.82047" lon="3.9198">
        <ele>1114</ele>
        <time>2019-07-29T12:18:51Z</time>
      </trkpt>
      <trkpt lat="44.82031" lon="3.91959">
        <ele>1115</ele>
        <time>2019-07-29T12:19:11Z</time>
      </trkpt>
      <trkpt lat="44.82011" lon="3.91935">
        <ele>1117</ele>
        <time>2019-07-29T12:19:33Z</time>
      </trkpt>
      <trkpt lat="44.81993" lon="3.91918">
        <ele>1119</ele>
        <time>2019-07-29T12:19:54Z</time>
      </trkpt>
      <trkpt lat="44.81978" lon="3.91895">
        <ele>1121</ele>
        <time>2019-07-29T12:20:14Z</time>
      </trkpt>
      <trkpt lat="44.8197" lon="3.9187">
        <ele>1122</ele>
        <time>2019-07-29T12:20:29Z</time>
      </trkpt>
      <trkpt lat="44.81953" lon="3.91847">
        <ele>1124</ele>
        <time>2019-07-29T12:20:50Z</time>
      </trkpt>
      <trkpt lat="44.81938" lon="3.9183">
        <ele>1126</ele>
        <time>2019-07-29T12:21:10Z</time>
      </trkpt>
      <trkpt lat="44.81923" lon="3.91809">
        <ele>1128</ele>
        <time>2019-07-29T12:21:33Z</time>
      </trkpt>
      <trkpt lat="44.81913" lon="3.91791">
        <ele>1129</ele>
        <time>2019-07-29T12:21:49Z</time>
      </trkpt>
      <trkpt lat="44.81902" lon="3.91764">
        <ele>1130</ele>
        <time>2019-07-29T12:22:09Z</time>
      </trkpt>
      <trkpt lat="44.81889" lon="3.91732">
        <ele>1132</ele>
        <time>2019-07-29T12:22:29Z</time>
      </trkpt>
      <trkpt lat="44.81877" lon="3.91705">
        <ele>1133</ele>
        <time>2019-07-29T12:22:49Z</time>
      </trkpt>
      <trkpt lat="44.81863" lon="3.91679">
        <ele>1135</ele>
        <time>2019-07-29T12:23:10Z</time>
      </trkpt>
      <trkpt lat="44.81852" lon="3.9166">
        <ele>1136</ele>
        <time>2019-07-29T12:23:25Z</time>
      </trkpt>
      <trkpt lat="44.81836" lon="3.91639">
        <ele>1138</ele>
        <time>2019-07-29T12:23:45Z</time>
      </trkpt>
      <trkpt lat="44.81821" lon="3.91638">
        <ele>1140</ele>
        <time>2019-07-29T12:24:24Z</time>
      </trkpt>
      <trkpt lat="44.81805" lon="3.9162">
        <ele>1144</ele>
        <time>2019-07-29T12:24:58Z</time>
      </trkpt>
      <trkpt lat="44.81792" lon="3.91603">
        <ele>1146</ele>
        <time>2019-07-29T12:25:13Z</time>
      </trkpt>
      <trkpt lat="44.81778" lon="3.91581">
        <ele>1147</ele>
        <time>2019-07-29T12:25:35Z</time>
      </trkpt>
      <trkpt lat="44.81764" lon="3.91558">
        <ele>1148</ele>
        <time>2019-07-29T12:25:57Z</time>
      </trkpt>
      <trkpt lat="44.81749" lon="3.91533">
        <ele>1148</ele>
        <time>2019-07-29T12:26:21Z</time>
      </trkpt>
      <trkpt lat="44.81733" lon="3.91522">
        <ele>1149</ele>
        <time>2019-07-29T12:26:56Z</time>
      </trkpt>
      <trkpt lat="44.81724" lon="3.91506">
        <ele>1151</ele>
        <time>2019-07-29T12:27:13Z</time>
      </trkpt>
      <trkpt lat="44.81703" lon="3.91496">
        <ele>1153</ele>
        <time>2019-07-29T12:27:33Z</time>
      </trkpt>
      <trkpt lat="44.81688" lon="3.91478">
        <ele>1154</ele>
        <time>2019-07-29T12:27:53Z</time>
      </trkpt>
      <trkpt lat="44.81668" lon="3.91468">
        <ele>1156</ele>
        <time>2019-07-29T12:28:18Z</time>
      </trkpt>
      <trkpt lat="44.81644" lon="3.91466">
        <ele>1159</ele>
        <time>2019-07-29T12:28:43Z</time>
      </trkpt>
      <trkpt lat="44.81633" lon="3.91447">
        <ele>1161</ele>
        <time>2019-07-29T12:29:03Z</time>
      </trkpt>
      <trkpt lat="44.81618" lon="3.91455">
        <ele>1163</ele>
        <time>2019-07-29T12:29:28Z</time>
      </trkpt>
      <trkpt lat="44.81591" lon="3.91451">
        <ele>1166</ele>
        <time>2019-07-29T12:29:48Z</time>
      </trkpt>
      <trkpt lat="44.81571" lon="3.91461">
        <ele>1169</ele>
        <time>2019-07-29T12:30:15Z</time>
      </trkpt>
      <trkpt lat="44.81569" lon="3.91465">
        <ele>1172</ele>
        <time>2019-07-29T12:30:40Z</time>
      </trkpt>
      <trkpt lat="44.81547" lon="3.91449">
        <ele>1176</ele>
        <time>2019-07-29T12:31:10Z</time>
      </trkpt>
      <trkpt lat="44.81519" lon="3.91439">
        <ele>1182</ele>
        <time>2019-07-29T12:31:39Z</time>
      </trkpt>
      <trkpt lat="44.81498" lon="3.91427">
        <ele>1186</ele>
        <time>2019-07-29T12:32:08Z</time>
      </trkpt>
      <trkpt lat="44.8148" lon="3.91414">
        <ele>1190</ele>
        <time>2019-07-29T12:32:28Z</time>
      </trkpt>
      <trkpt lat="44.81463" lon="3.91423">
        <ele>1193</ele>
        <time>2019-07-29T12:32:44Z</time>
      </trkpt>
      <trkpt lat="44.81438" lon="3.9142">
        <ele>1196</ele>
        <time>2019-07-29T12:33:07Z</time>
      </trkpt>
      <trkpt lat="44.8142" lon="3.91422">
        <ele>1198</ele>
        <time>2019-07-29T12:33:39Z</time>
      </trkpt>
      <trkpt lat="44.81398" lon="3.91408">
        <ele>1200</ele>
        <time>2019-07-29T12:33:59Z</time>
      </trkpt>
      <trkpt lat="44.81387" lon="3.91396">
        <ele>1201</ele>
        <time>2019-07-29T12:34:34Z</time>
      </trkpt>
      <trkpt lat="44.81371" lon="3.91374">
        <ele>1204</ele>
        <time>2019-07-29T12:34:57Z</time>
      </trkpt>
      <trkpt lat="44.81355" lon="3.91354">
        <ele>1207</ele>
        <time>2019-07-29T12:35:22Z</time>
      </trkpt>
      <trkpt lat="44.81342" lon="3.91329">
        <ele>1210</ele>
        <time>2019-07-29T12:35:42Z</time>
      </trkpt>
      <trkpt lat="44.81333" lon="3.91326">
        <ele>1213</ele>
        <time>2019-07-29T12:36:49Z</time>
      </trkpt>
      <trkpt lat="44.8133" lon="3.91311">
        <ele>1217</ele>
        <time>2019-07-29T12:37:06Z</time>
      </trkpt>
      <trkpt lat="44.81317" lon="3.91283">
        <ele>1220</ele>
        <time>2019-07-29T12:37:31Z</time>
      </trkpt>
      <trkpt lat="44.81297" lon="3.9126">
        <ele>1222</ele>
        <time>2019-07-29T12:38:02Z</time>
      </trkpt>
      <trkpt lat="44.81276" lon="3.91245">
        <ele>1224</ele>
        <time>2019-07-29T12:38:22Z</time>
      </trkpt>
      <trkpt lat="44.81258" lon="3.91232">
        <ele>1224</ele>
        <time>2019-07-29T12:38:37Z</time>
      </trkpt>
      <trkpt lat="44.81237" lon="3.91216">
        <ele>1225</ele>
        <time>2019-07-29T12:38:57Z</time>
      </trkpt>
      <trkpt lat="44.81214" lon="3.91199">
        <ele>1225</ele>
        <time>2019-07-29T12:39:17Z</time>
      </trkpt>
      <trkpt lat="44.8119" lon="3.91189">
        <ele>1224</ele>
        <time>2019-07-29T12:39:46Z</time>
      </trkpt>
      <trkpt lat="44.81161" lon="3.91184">
        <ele>1224</ele>
        <time>2019-07-29T12:40:06Z</time>
      </trkpt>
      <trkpt lat="44.81142" lon="3.91177">
        <ele>1223</ele>
        <time>2019-07-29T12:40:21Z</time>
      </trkpt>
      <trkpt lat="44.81118" lon="3.91167">
        <ele>1222</ele>
        <time>2019-07-29T12:40:41Z</time>
      </trkpt>
      <trkpt lat="44.81097" lon="3.91153">
        <ele>1221</ele>
        <time>2019-07-29T12:41:02Z</time>
      </trkpt>
      <trkpt lat="44.81078" lon="3.91143">
        <ele>1220</ele>
        <time>2019-07-29T12:41:23Z</time>
      </trkpt>
      <trkpt lat="44.8106" lon="3.91126">
        <ele>1219</ele>
        <time>2019-07-29T12:41:44Z</time>
      </trkpt>
      <trkpt lat="44.81047" lon="3.91109">
        <ele>1218</ele>
        <time>2019-07-29T12:41:59Z</time>
      </trkpt>
      <trkpt lat="44.81013" lon="3.91098">
        <ele>1217</ele>
        <time>2019-07-29T12:42:19Z</time>
      </trkpt>
      <trkpt lat="44.80986" lon="3.91102">
        <ele>1216</ele>
        <time>2019-07-29T12:42:39Z</time>
      </trkpt>
      <trkpt lat="44.80959" lon="3.91101">
        <ele>1215</ele>
        <time>2019-07-29T12:42:59Z</time>
      </trkpt>
      <trkpt lat="44.80938" lon="3.91104">
        <ele>1215</ele>
        <time>2019-07-29T12:43:14Z</time>
      </trkpt>
      <trkpt lat="44.80912" lon="3.91102">
        <ele>1214</ele>
        <time>2019-07-29T12:43:35Z</time>
      </trkpt>
      <trkpt lat="44.80887" lon="3.91102">
        <ele>1213</ele>
        <time>2019-07-29T12:43:56Z</time>
      </trkpt>
      <trkpt lat="44.8088" lon="3.91082">
        <ele>1212</ele>
        <time>2019-07-29T12:44:49Z</time>
      </trkpt>
      <trkpt lat="44.80874" lon="3.91085">
        <ele>1211</ele>
        <time>2019-07-29T12:45:32Z</time>
      </trkpt>
      <trkpt lat="44.80855" lon="3.91098">
        <ele>1210</ele>
        <time>2019-07-29T12:46:02Z</time>
      </trkpt>
      <trkpt lat="44.80828" lon="3.91107">
        <ele>1208</ele>
        <time>2019-07-29T12:46:22Z</time>
      </trkpt>
      <trkpt lat="44.80804" lon="3.9108">
        <ele>1208</ele>
        <time>2019-07-29T12:46:42Z</time>
      </trkpt>
      <trkpt lat="44.80778" lon="3.91065">
        <ele>1207</ele>
        <time>2019-07-29T12:47:02Z</time>
      </trkpt>
      <trkpt lat="44.80758" lon="3.91051">
        <ele>1207</ele>
        <time>2019-07-29T12:47:17Z</time>
      </trkpt>
      <trkpt lat="44.80735" lon="3.91031">
        <ele>1206</ele>
        <time>2019-07-29T12:47:39Z</time>
      </trkpt>
      <trkpt lat="44.80721" lon="3.91008">
        <ele>1206</ele>
        <time>2019-07-29T12:48:00Z</time>
      </trkpt>
      <trkpt lat="44.807" lon="3.90985">
        <ele>1206</ele>
        <time>2019-07-29T12:48:29Z</time>
      </trkpt>
      <trkpt lat="44.80676" lon="3.90958">
        <ele>1205</ele>
        <time>2019-07-29T12:48:49Z</time>
      </trkpt>
      <trkpt lat="44.80662" lon="3.90943">
        <ele>1204</ele>
        <time>2019-07-29T12:49:04Z</time>
      </trkpt>
      <trkpt lat="44.80645" lon="3.90921">
        <ele>1203</ele>
        <time>2019-07-29T12:49:26Z</time>
      </trkpt>
      <trkpt lat="44.80631" lon="3.90897">
        <ele>1202</ele>
        <time>2019-07-29T12:49:47Z</time>
      </trkpt>
      <trkpt lat="44.80613" lon="3.90866">
        <ele>1201</ele>
        <time>2019-07-29T12:50:07Z</time>
      </trkpt>
      <trkpt lat="44.80589" lon="3.90845">
        <ele>1201</ele>
        <time>2019-07-29T12:50:27Z</time>
      </trkpt>
      <trkpt lat="44.80572" lon="3.90836">
        <ele>1201</ele>
        <time>2019-07-29T12:50:42Z</time>
      </trkpt>
      <trkpt lat="44.80552" lon="3.90817">
        <ele>1201</ele>
        <time>2019-07-29T12:51:13Z</time>
      </trkpt>
      <trkpt lat="44.80536" lon="3.90796">
        <ele>1201</ele>
        <time>2019-07-29T12:51:34Z</time>
      </trkpt>
      <trkpt lat="44.80517" lon="3.90778">
        <ele>1201</ele>
        <time>2019-07-29T12:51:55Z</time>
      </trkpt>
      <trkpt lat="44.80499" lon="3.90762">
        <ele>1201</ele>
        <time>2019-07-29T12:52:10Z</time>
      </trkpt>
      <trkpt lat="44.80477" lon="3.90741">
        <ele>1201</ele>
        <time>2019-07-29T12:52:32Z</time>
      </trkpt>
      <trkpt lat="44.80463" lon="3.90721">
        <ele>1201</ele>
        <time>2019-07-29T12:52:53Z</time>
      </trkpt>
      <trkpt lat="44.80452" lon="3.90698">
        <ele>1202</ele>
        <time>2019-07-29T12:53:25Z</time>
      </trkpt>
      <trkpt lat="44.80441" lon="3.90672">
        <ele>1202</ele>
        <time>2019-07-29T12:54:06Z</time>
      </trkpt>
      <trkpt lat="44.80433" lon="3.90647">
        <ele>1202</ele>
        <time>2019-07-29T12:54:23Z</time>
      </trkpt>
      <trkpt lat="44.80412" lon="3.90633">
        <ele>1202</ele>
        <time>2019-07-29T12:54:43Z</time>
      </trkpt>
    </trkseg>
  </trk>
</gpx>